createdAt,value
2022-08-19T12:25:25.778Z,99886.18
2022-08-19T12:40:29.345Z,99883.52
2022-08-19T12:55:32.986Z,99869.21
2022-08-19T13:10:37.538Z,99850.79
2022-08-19T13:25:41.114Z,99849.52
2022-08-19T13:40:45.628Z,99848.83
2022-08-19T13:55:51.075Z,99842.17
2022-08-19T14:10:55.186Z,99850.12
2022-08-19T14:26:14.809Z,99849.20
2022-08-19T14:41:21.235Z,99850.24
2022-08-19T14:56:28.613Z,99851.32
2022-08-19T15:11:33.894Z,99837.70
2022-08-19T15:26:37.871Z,99823.60
2022-08-19T15:41:43.488Z,99828.35
2022-08-19T15:57:10.095Z,99821.45
2022-08-19T16:12:13.479Z,99814.69
2022-08-19T16:27:16.992Z,99816.93
2022-08-19T16:42:21.217Z,99815.55
2022-08-19T16:57:24.785Z,99822.59
2022-08-19T17:12:32.200Z,99832.79
2022-08-19T17:27:36.219Z,99835.23
2022-08-19T17:42:41.850Z,99843.48
2022-08-19T17:57:46.890Z,99858.15
2022-08-19T18:12:51.281Z,99872.93
2022-08-19T18:27:58.736Z,99884.33
2022-08-19T18:43:11.684Z,99883.86
2022-08-19T18:58:17.387Z,99883.30
2022-08-19T19:13:20.851Z,99885.52
2022-08-19T19:28:28.009Z,99874.07
2022-08-19T19:43:36.483Z,99886.91
2022-08-19T19:58:45.215Z,99894.94
2022-08-19T20:13:48.696Z,99884.36
2022-08-19T20:29:08.869Z,99878.45
2022-08-19T20:44:16.030Z,99900.87
2022-08-19T20:59:21.537Z,99924.77
2022-08-19T21:14:25.091Z,99934.36
2022-08-19T21:29:29.450Z,99924.90
2022-08-19T21:44:33.046Z,99945.13
2022-08-19T21:59:43.757Z,99951.84
2022-08-19T22:14:47.412Z,99935.19
2022-08-19T22:29:52.658Z,99919.63
2022-08-19T22:44:59.170Z,99920.70
2022-08-19T23:00:02.719Z,99965.19
2022-08-19T23:15:17.640Z,99975.17
2022-08-19T23:30:29.214Z,100003.52
2022-08-19T23:45:33.491Z,100025.94
